createdAt,value
2023-03-28T00:02:01.774Z,2.01
2023-03-28T00:07:05.718Z,1.93
2023-03-28T00:12:08.408Z,1.84
2023-03-28T00:17:10.981Z,1.80
2023-03-28T00:22:13.814Z,1.75
2023-03-28T00:27:17.920Z,1.73
2023-03-28T00:32:20.570Z,1.75
2023-03-28T00:37:23.740Z,1.63
2023-03-28T00:42:26.522Z,1.46
2023-03-28T00:47:57.889Z,1.50
2023-03-28T00:53:09.265Z,1.36
2023-03-28T00:58:17.335Z,1.38
2023-03-28T01:03:22.710Z,1.24
2023-03-28T01:08:31.348Z,1.20
2023-03-28T01:13:39.075Z,1.14
2023-03-28T01:18:42.773Z,1.14
2023-03-28T01:23:49.681Z,1.21
2023-03-28T01:29:01.310Z,1.10
2023-03-28T01:34:42.363Z,1.01
2023-03-28T01:40:00.453Z,1.00
2023-03-28T01:45:14.928Z,0.97
2023-03-28T01:50:20.751Z,0.99
2023-03-28T01:55:27.254Z,0.93
2023-03-28T02:00:40.199Z,0.89
2023-03-28T02:05:45.423Z,0.81
2023-03-28T02:10:53.910Z,0.60
2023-03-28T02:16:24.675Z,0.63
2023-03-28T02:21:58.731Z,0.55
2023-03-28T02:27:22.886Z,0.57
2023-03-28T02:32:50.534Z,0.36
2023-03-28T02:38:14.777Z,0.40
2023-03-28T02:43:49.041Z,0.30
2023-03-28T02:49:24.241Z,0.43
2023-03-28T02:54:30.033Z,0.50
2023-03-28T03:00:12.619Z,0.37
2023-03-28T03:05:16.506Z,0.44
2023-03-28T03:10:19.315Z,0.37
2023-03-28T03:15:23.210Z,0.41
2023-03-28T03:20:26.725Z,0.48
2023-03-28T03:25:31.423Z,0.43
2023-03-28T03:30:54.305Z,0.58
2023-03-28T03:36:12.878Z,0.88
2023-03-28T03:41:17.139Z,0.93
2023-03-28T03:46:20.475Z,1.03
2023-03-28T03:51:25.209Z,1.32
2023-03-28T03:56:30.872Z,1.54
2023-03-28T04:01:36.283Z,1.65
2023-03-28T04:06:52.333Z,1.73
2023-03-28T04:11:55.684Z,1.84
2023-03-28T04:16:58.655Z,1.91
2023-03-28T04:22:04.442Z,2.22
2023-03-28T04:27:09.504Z,2.44
2023-03-28T04:32:13.030Z,2.70
2023-03-28T04:37:40.969Z,2.98
2023-03-28T04:42:44.593Z,3.29
2023-03-28T04:48:01.523Z,3.68
2023-03-28T04:53:04.189Z,4.08
2023-03-28T04:58:07.300Z,4.32
2023-03-28T05:08:32.907Z,4.90
2023-03-28T05:13:36.958Z,5.21
2023-03-28T05:19:06.585Z,5.52
2023-03-28T05:24:38.594Z,5.89
2023-03-28T05:29:48.644Z,6.06
2023-03-28T05:34:53.239Z,6.31
2023-03-28T05:39:57.410Z,6.52
2023-03-28T05:45:00.460Z,6.76
2023-03-28T05:50:07.430Z,6.98
2023-03-28T05:55:10.403Z,7.23
2023-03-28T06:00:15.612Z,7.40
2023-03-28T06:05:21.344Z,7.73
2023-03-28T06:10:25.723Z,8.14
2023-03-28T06:15:46.770Z,8.48
2023-03-28T06:20:49.798Z,8.80
2023-03-28T06:25:53.052Z,8.87
2023-03-28T06:30:57.255Z,8.96
2023-03-28T06:36:00.015Z,9.07
2023-03-28T06:41:07.120Z,8.76
2023-03-28T06:46:11.591Z,9.20
2023-03-28T06:51:19.640Z,9.29
2023-03-28T06:56:22.661Z,9.48
2023-03-28T07:01:25.600Z,9.66
2023-03-28T07:06:34.297Z,9.80
2023-03-28T07:11:37.108Z,10.03
2023-03-28T07:16:40.097Z,10.39
2023-03-28T07:21:45.456Z,10.21
2023-03-28T07:26:49.035Z,9.84
2023-03-28T07:31:52.026Z,10.12
2023-03-28T07:36:54.680Z,9.84
2023-03-28T07:42:16.561Z,9.72
2023-03-28T07:47:20.126Z,9.73
2023-03-28T07:52:22.918Z,9.82
2023-03-28T07:57:26.033Z,10.21
2023-03-28T08:02:35.374Z,10.52
2023-03-28T08:07:38.076Z,10.39
2023-03-28T08:12:41.625Z,10.45
2023-03-28T08:17:45.024Z,10.40
2023-03-28T08:22:49.133Z,10.18
2023-03-28T08:28:27.176Z,10.22
2023-03-28T08:33:29.977Z,10.23
2023-03-28T08:38:33.862Z,10.50
2023-03-28T08:43:52.931Z,10.75
2023-03-28T08:48:57.976Z,10.81
2023-03-28T08:54:37.079Z,11.20
2023-03-28T08:59:43.407Z,11.27
2023-03-28T09:04:48.793Z,11.84
2023-03-28T09:10:24.869Z,11.69
2023-03-28T09:16:03.190Z,11.25
2023-03-28T09:21:16.971Z,11.13
2023-03-28T09:26:34.234Z,11.10
2023-03-28T09:31:48.148Z,10.72
2023-03-28T09:36:56.458Z,11.01
2023-03-28T09:42:08.035Z,11.28
2023-03-28T09:47:22.879Z,11.43
2023-03-28T09:52:35.725Z,11.63
2023-03-28T09:58:00.368Z,11.58
2023-03-28T10:03:04.824Z,11.42
2023-03-28T10:08:25.107Z,11.31
2023-03-28T10:13:52.240Z,11.36
2023-03-28T10:18:55.521Z,11.58
2023-03-28T10:24:17.073Z,11.43
2023-03-28T10:29:28.434Z,11.44
2023-03-28T10:34:37.098Z,11.36
2023-03-28T10:40:07.972Z,11.06
2023-03-28T10:45:41.690Z,11.08
2023-03-28T10:50:56.903Z,11.08
2023-03-28T10:56:26.722Z,10.91
2023-03-28T11:01:53.810Z,10.87
2023-03-28T11:07:18.782Z,10.42
2023-03-28T11:12:57.818Z,10.12
2023-03-28T11:18:20.289Z,10.16
2023-03-28T11:23:38.929Z,9.94
2023-03-28T11:29:41.916Z,9.96
2023-03-28T11:34:59.679Z,10.14
2023-03-28T11:40:28.284Z,10.23
2023-03-28T11:45:52.655Z,10.37
2023-03-28T11:51:13.484Z,10.33
2023-03-28T11:56:51.836Z,10.51
2023-03-28T12:02:27.636Z,10.74
2023-03-28T12:07:46.136Z,10.66
2023-03-28T12:13:31.857Z,10.44
2023-03-28T12:18:51.580Z,10.60
2023-03-28T12:24:40.335Z,10.56
2023-03-28T12:29:59.499Z,10.44
2023-03-28T12:35:18.532Z,10.46
2023-03-28T12:41:00.903Z,10.39
2023-03-28T12:46:08.426Z,10.40
2023-03-28T12:51:20.648Z,10.12
2023-03-28T12:56:23.372Z,10.07
2023-03-28T13:01:44.885Z,9.82
2023-03-28T13:07:12.540Z,9.99
2023-03-28T13:12:30.880Z,9.95
2023-03-28T13:17:37.564Z,9.83
2023-03-28T13:22:57.728Z,9.95
2023-03-28T13:28:23.051Z,9.85
2023-03-28T13:33:32.645Z,9.83
2023-03-28T13:39:07.657Z,9.87
2023-03-28T13:44:19.176Z,9.69
2023-03-28T13:49:37.407Z,9.56
2023-03-28T13:54:40.493Z,9.29
2023-03-28T13:59:58.745Z,9.49
2023-03-28T14:05:34.181Z,9.51
2023-03-28T14:10:39.764Z,9.39
2023-03-28T14:15:44.708Z,9.28
2023-03-28T14:20:47.847Z,9.21
2023-03-28T14:25:51.497Z,9.20
2023-03-28T14:30:54.197Z,9.06
2023-03-28T14:36:03.192Z,8.85
2023-03-28T14:41:12.297Z,8.97
2023-03-28T14:46:15.089Z,8.88
2023-03-28T14:51:17.787Z,8.73
2023-03-28T14:56:28.343Z,8.63
2023-03-28T15:01:33.857Z,8.56
2023-03-28T15:06:38.807Z,8.57
2023-03-28T15:11:43.809Z,8.41
2023-03-28T15:16:47.409Z,8.20
2023-03-28T15:21:55.295Z,8.12
2023-03-28T15:27:02.169Z,8.02
2023-03-28T15:32:16.563Z,7.82
2023-03-28T15:37:21.964Z,7.88
2023-03-28T15:42:34.257Z,7.77
2023-03-28T15:47:37.570Z,7.55
2023-03-28T15:52:43.516Z,7.54
2023-03-28T15:57:47.918Z,7.42
2023-03-28T16:02:50.622Z,7.31
2023-03-28T16:14:53.057Z,7.11
2023-03-28T16:20:30.948Z,7.06
2023-03-28T16:25:42.024Z,7.04
2023-03-28T16:30:46.077Z,6.93
2023-03-28T16:35:48.912Z,6.92
2023-03-28T16:40:51.687Z,6.88
2023-03-28T16:45:54.418Z,6.79
2023-03-28T16:50:59.314Z,6.79
2023-03-28T16:56:02.364Z,6.77
2023-03-28T17:01:10.638Z,6.70
2023-03-28T17:06:14.251Z,6.65
2023-03-28T17:11:17.075Z,6.64
2023-03-28T17:16:20.120Z,6.63
2023-03-28T17:21:22.752Z,6.58
2023-03-28T17:26:37.272Z,6.57
2023-03-28T17:31:51.280Z,6.50
2023-03-28T17:36:54.006Z,6.47
2023-03-28T17:41:56.911Z,6.44
2023-03-28T17:47:00.806Z,6.44
2023-03-28T17:52:04.467Z,6.45
2023-03-28T17:57:08.470Z,6.51
2023-03-28T18:02:11.664Z,6.49
2023-03-28T18:07:16.086Z,6.42
2023-03-28T18:12:20.082Z,6.52
2023-03-28T18:17:23.698Z,6.52
2023-03-28T18:22:27.073Z,6.51
2023-03-28T18:27:29.735Z,6.44
2023-03-28T18:32:33.004Z,6.54
2023-03-28T18:37:35.814Z,6.51
2023-03-28T18:42:38.562Z,6.58
2023-03-28T18:47:41.469Z,6.52
2023-03-28T18:52:44.304Z,6.50
2023-03-28T18:57:46.964Z,6.50
2023-03-28T19:02:50.678Z,6.44
2023-03-28T19:07:53.400Z,6.37
2023-03-28T19:12:56.261Z,6.26
2023-03-28T19:18:02.273Z,6.17
2023-03-28T19:23:05.744Z,6.18
2023-03-28T19:28:08.498Z,6.07
2023-03-28T19:33:11.314Z,6.04
2023-03-28T19:38:13.906Z,5.94
2023-03-28T19:43:21.072Z,5.77
2023-03-28T19:48:24.294Z,5.68
2023-03-28T19:53:27.482Z,5.73
2023-03-28T19:58:31.223Z,5.67
2023-03-28T20:03:33.806Z,5.66
2023-03-28T20:08:36.514Z,5.68
2023-03-28T20:13:39.820Z,5.58
2023-03-28T20:18:42.851Z,5.75
2023-03-28T20:23:45.597Z,5.71
2023-03-28T20:28:51.365Z,5.78
2023-03-28T20:33:55.003Z,5.89
2023-03-28T20:38:57.563Z,5.82
2023-03-28T20:44:03.571Z,5.78
2023-03-28T20:49:06.477Z,5.80
2023-03-28T20:54:09.262Z,5.76
2023-03-28T20:59:12.676Z,5.72
2023-03-28T21:04:15.360Z,5.69
2023-03-28T21:09:18.365Z,5.69
2023-03-28T21:14:21.084Z,5.76
2023-03-28T21:19:23.680Z,5.71
2023-03-28T21:24:26.238Z,5.80
2023-03-28T21:29:29.142Z,5.77
2023-03-28T21:34:34.396Z,5.69
2023-03-28T21:39:37.002Z,5.62
2023-03-28T21:44:39.623Z,5.55
2023-03-28T21:49:46.143Z,5.55
2023-03-28T21:54:48.882Z,5.56
2023-03-28T21:59:51.546Z,5.56
2023-03-28T22:04:54.093Z,5.42
2023-03-28T22:10:01.209Z,5.48
2023-03-28T22:15:04.787Z,5.35
2023-03-28T22:20:09.454Z,5.13
2023-03-28T22:25:13.089Z,5.18
2023-03-28T22:30:15.741Z,5.13
2023-03-28T22:35:18.398Z,5.08
2023-03-28T22:40:21.309Z,5.00
2023-03-28T22:45:27.399Z,4.96
2023-03-28T22:50:30.372Z,4.93
2023-03-28T22:55:33.184Z,4.95
2023-03-28T23:00:36.359Z,4.90
2023-03-28T23:05:39.118Z,4.88
2023-03-28T23:10:41.714Z,4.89
2023-03-28T23:15:44.916Z,4.74
2023-03-28T23:20:51.096Z,4.80
2023-03-28T23:25:53.697Z,4.79
2023-03-28T23:30:56.297Z,4.82
2023-03-28T23:35:59.071Z,4.87
2023-03-28T23:41:01.816Z,5.04
2023-03-28T23:46:04.941Z,5.13
2023-03-28T23:51:07.635Z,5.18
2023-03-28T23:56:10.291Z,4.97
